createdAt,value
2017-08-10T00:01:27.742Z,2.50
2017-08-10T00:03:56.968Z,2.83
2017-08-10T00:06:26.103Z,3.30
2017-08-10T00:08:55.416Z,2.33
2017-08-10T00:11:24.561Z,2.50
2017-08-10T00:13:53.669Z,2.70
2017-08-10T00:18:58.469Z,3.23
2017-08-10T00:21:27.605Z,3.00
2017-08-10T00:23:56.745Z,3.40
2017-08-10T00:26:26.141Z,4.83
2017-08-10T00:28:55.247Z,4.60
2017-08-10T00:31:24.417Z,5.03
2017-08-10T00:33:53.543Z,5.70
2017-08-10T00:36:22.651Z,6.03
2017-08-10T00:38:51.774Z,6.17
2017-08-10T00:41:20.883Z,6.23
2017-08-10T00:43:50.037Z,7.33
2017-08-10T00:46:19.941Z,6.30
2017-08-10T00:48:49.045Z,7.13
2017-08-10T00:51:18.165Z,6.43
2017-08-10T00:53:47.413Z,8.47
2017-08-10T00:56:16.546Z,7.73
2017-08-10T00:58:45.659Z,7.17
2017-08-10T01:01:14.817Z,8.33
2017-08-10T01:03:43.936Z,8.27
2017-08-10T01:06:13.084Z,8.37
2017-08-10T01:08:42.202Z,8.87
2017-08-10T01:11:11.411Z,8.83
2017-08-10T01:13:40.564Z,7.07
2017-08-10T01:16:09.677Z,7.70
2017-08-10T01:18:38.826Z,7.60
2017-08-10T01:21:07.964Z,7.83
2017-08-10T01:23:37.090Z,8.27
2017-08-10T01:26:06.218Z,7.47
2017-08-10T01:28:35.375Z,8.50
2017-08-10T01:31:04.639Z,8.20
2017-08-10T01:33:33.750Z,8.60
2017-08-10T01:36:03.401Z,7.70
2017-08-10T01:38:32.557Z,7.97
2017-08-10T01:41:01.670Z,7.53
2017-08-10T01:43:30.794Z,7.47
2017-08-10T01:45:59.925Z,7.33
2017-08-10T01:48:29.064Z,8.47
2017-08-10T01:50:58.176Z,7.77
2017-08-10T01:53:27.312Z,7.70
2017-08-10T01:55:56.428Z,9.20
2017-08-10T01:58:25.667Z,9.97
2017-08-10T02:00:55.482Z,10.20
2017-08-10T02:03:24.607Z,9.93
2017-08-10T02:05:53.735Z,12.10
2017-08-10T02:08:22.879Z,12.00
2017-08-10T02:10:52.008Z,11.40
2017-08-10T02:13:21.346Z,12.83
2017-08-10T02:15:50.515Z,13.93
2017-08-10T02:18:19.647Z,13.30
2017-08-10T02:20:48.762Z,14.43
2017-08-10T02:23:17.901Z,14.77
2017-08-10T02:25:47.184Z,14.10
2017-08-10T02:28:16.322Z,12.40
2017-08-10T02:30:45.579Z,12.80
2017-08-10T02:33:15.203Z,14.20
2017-08-10T02:35:44.341Z,13.67
2017-08-10T02:38:13.465Z,14.33
2017-08-10T02:40:42.585Z,14.07
2017-08-10T02:43:11.731Z,12.37
2017-08-10T02:45:40.856Z,16.73
2017-08-10T02:48:10.156Z,13.97
2017-08-10T02:50:39.270Z,13.53
2017-08-10T02:53:08.611Z,14.87
2017-08-10T02:55:37.736Z,14.40
2017-08-10T02:58:06.829Z,13.50
2017-08-10T03:00:35.959Z,13.67
2017-08-10T03:03:05.062Z,14.43
2017-08-10T03:05:34.207Z,15.80
2017-08-10T03:08:03.282Z,14.03
2017-08-10T03:10:32.389Z,15.37
2017-08-10T03:13:01.524Z,14.47
2017-08-10T03:15:30.649Z,14.37
2017-08-10T03:17:59.865Z,15.53
2017-08-10T03:20:28.992Z,14.30
2017-08-10T03:22:58.249Z,15.93
2017-08-10T03:25:27.426Z,15.40
2017-08-10T03:27:56.563Z,16.73
2017-08-10T03:30:25.797Z,14.83
2017-08-10T03:32:54.912Z,16.20
2017-08-10T03:35:24.049Z,13.97
2017-08-10T03:37:53.380Z,15.63
2017-08-10T03:40:22.513Z,16.30
2017-08-10T03:42:51.643Z,16.40
2017-08-10T03:45:20.820Z,16.80
2017-08-10T03:47:49.940Z,17.57
2017-08-10T03:50:19.092Z,16.80
2017-08-10T03:52:48.244Z,17.20
2017-08-10T03:55:17.360Z,15.33
2017-08-10T03:57:46.475Z,16.93
2017-08-10T04:00:15.725Z,15.83
2017-08-10T04:02:44.849Z,15.10
2017-08-10T04:05:14.302Z,18.33
2017-08-10T04:07:43.414Z,17.13
2017-08-10T04:10:12.548Z,16.50
2017-08-10T04:12:41.803Z,16.50
2017-08-10T04:15:11.497Z,16.33
2017-08-10T04:17:40.649Z,15.53
2017-08-10T04:20:10.249Z,15.80
2017-08-10T04:22:39.382Z,17.37
2017-08-10T04:25:08.503Z,15.40
2017-08-10T04:27:37.646Z,15.90
2017-08-10T04:30:06.761Z,13.83
2017-08-10T04:32:35.914Z,13.60
2017-08-10T04:35:05.109Z,15.50
2017-08-10T04:37:34.243Z,14.77
2017-08-10T04:40:03.510Z,14.70
2017-08-10T04:42:32.800Z,14.67
2017-08-10T04:45:01.989Z,14.57
2017-08-10T04:47:31.121Z,15.17
2017-08-10T04:50:00.259Z,14.87
2017-08-10T04:52:29.377Z,13.50
2017-08-10T04:54:58.537Z,14.47
2017-08-10T04:57:27.653Z,14.83
2017-08-10T04:59:56.780Z,13.37
2017-08-10T05:02:25.904Z,13.30
2017-08-10T05:04:55.039Z,14.00
2017-08-10T05:07:24.160Z,15.33
2017-08-10T05:09:53.284Z,14.93
2017-08-10T05:12:22.412Z,13.60
2017-08-10T05:14:51.811Z,13.40
2017-08-10T05:17:20.957Z,14.33
2017-08-10T05:19:50.102Z,14.20
2017-08-10T05:22:19.287Z,13.50
2017-08-10T05:24:48.421Z,13.60
2017-08-10T05:27:17.573Z,12.30
2017-08-10T05:29:46.730Z,13.87
2017-08-10T05:32:18.358Z,13.50
2017-08-10T05:34:47.485Z,12.47
2017-08-10T05:37:16.620Z,13.67
2017-08-10T05:39:45.756Z,14.67
2017-08-10T05:42:14.897Z,14.60
2017-08-10T05:44:44.054Z,14.50
2017-08-10T05:47:13.195Z,14.20
2017-08-10T05:49:42.884Z,15.07
2017-08-10T05:52:12.014Z,14.33
2017-08-10T05:54:41.241Z,14.20
2017-08-10T05:57:10.373Z,14.67
2017-08-10T05:59:39.561Z,15.50
2017-08-10T06:02:08.922Z,15.93
2017-08-10T06:04:38.057Z,15.63
2017-08-10T06:07:07.233Z,16.97
2017-08-10T06:09:41.708Z,17.73
2017-08-10T06:12:10.835Z,19.90
2017-08-10T06:14:39.970Z,19.73
2017-08-10T06:17:09.090Z,20.70
2017-08-10T06:19:38.220Z,20.63
2017-08-10T06:22:07.345Z,20.80
2017-08-10T06:24:36.471Z,20.57
2017-08-10T06:27:07.210Z,19.80
2017-08-10T06:29:36.589Z,19.70
2017-08-10T06:32:06.666Z,19.23
2017-08-10T06:34:35.802Z,21.03
2017-08-10T06:37:04.969Z,20.13
2017-08-10T06:39:34.103Z,20.77
2017-08-10T06:42:03.239Z,19.07
2017-08-10T06:44:32.360Z,19.13
2017-08-10T06:47:01.514Z,19.80
2017-08-10T06:49:30.667Z,21.30
2017-08-10T06:51:59.931Z,19.37
2017-08-10T06:54:29.080Z,17.30
2017-08-10T06:56:58.223Z,17.83
2017-08-10T06:59:27.388Z,15.60
2017-08-10T07:01:56.520Z,18.30
2017-08-10T07:04:26.084Z,15.90
2017-08-10T07:06:55.253Z,16.13
2017-08-10T07:09:24.379Z,15.27
2017-08-10T07:11:53.538Z,18.60
2017-08-10T07:14:22.679Z,16.43
2017-08-10T07:16:51.852Z,16.03
2017-08-10T07:19:21.022Z,16.00
2017-08-10T07:21:50.262Z,15.60
2017-08-10T07:24:19.419Z,19.30
2017-08-10T07:26:48.569Z,17.70
2017-08-10T07:29:17.709Z,17.50
2017-08-10T07:31:46.852Z,17.80
2017-08-10T07:34:15.966Z,17.90
2017-08-10T07:36:45.174Z,17.90
2017-08-10T07:39:14.320Z,17.37
2017-08-10T07:41:43.469Z,18.73
2017-08-10T07:44:12.622Z,17.13
2017-08-10T07:46:41.747Z,16.23
2017-08-10T07:49:10.872Z,17.83
2017-08-10T07:51:39.992Z,17.57
2017-08-10T07:54:09.125Z,18.97
2017-08-10T07:56:38.301Z,15.80
2017-08-10T07:59:07.481Z,15.60
2017-08-10T08:01:36.592Z,14.47
2017-08-10T08:04:05.785Z,15.30
2017-08-10T08:06:34.911Z,13.90
2017-08-10T08:09:04.024Z,14.83
2017-08-10T08:11:33.354Z,13.73
2017-08-10T08:14:02.727Z,13.43
2017-08-10T08:16:31.865Z,14.40
2017-08-10T08:19:00.980Z,13.30
2017-08-10T08:21:30.128Z,14.80
2017-08-10T08:23:59.265Z,13.10
2017-08-10T08:26:28.417Z,12.93
2017-08-10T08:28:57.583Z,10.70
2017-08-10T08:31:26.720Z,10.37
2017-08-10T08:33:55.854Z,9.07
2017-08-10T08:36:25.055Z,9.67
2017-08-10T08:38:54.240Z,11.07
2017-08-10T08:41:23.349Z,9.23
2017-08-10T08:43:52.518Z,9.70
2017-08-10T08:46:21.629Z,11.60
2017-08-10T08:48:50.901Z,10.33
2017-08-10T08:51:20.275Z,11.20
2017-08-10T08:53:49.398Z,10.60
2017-08-10T08:56:18.526Z,11.40
2017-08-10T08:58:48.214Z,10.20
2017-08-10T09:01:17.340Z,9.77
2017-08-10T09:03:46.457Z,10.30
2017-08-10T09:06:15.592Z,10.37
2017-08-10T09:08:44.724Z,10.00
2017-08-10T09:11:13.871Z,10.07
2017-08-10T09:13:43.620Z,12.40
2017-08-10T09:16:12.747Z,10.80
2017-08-10T09:18:41.980Z,11.07
2017-08-10T09:21:11.130Z,12.17
2017-08-10T09:23:40.321Z,11.93
2017-08-10T09:26:09.451Z,11.40
2017-08-10T09:28:38.573Z,12.93
2017-08-10T09:31:07.701Z,11.73
2017-08-10T09:33:36.831Z,11.40
2017-08-10T09:36:05.941Z,10.23
2017-08-10T09:38:35.140Z,12.77
2017-08-10T09:41:04.277Z,12.47
2017-08-10T09:43:33.424Z,11.73
2017-08-10T09:46:02.560Z,12.50
2017-08-10T09:48:31.685Z,10.77
2017-08-10T09:51:01.422Z,9.50
2017-08-10T09:53:30.580Z,7.53
2017-08-10T09:55:59.797Z,8.30
2017-08-10T09:58:28.948Z,8.90
2017-08-10T10:00:58.076Z,9.07
2017-08-10T10:03:27.250Z,10.47
2017-08-10T10:05:56.376Z,10.40
2017-08-10T10:08:25.509Z,10.50
2017-08-10T10:10:55.204Z,10.97
2017-08-10T10:13:24.323Z,12.40
2017-08-10T10:15:53.610Z,13.73
2017-08-10T10:18:22.740Z,16.30
2017-08-10T10:20:51.858Z,14.33
2017-08-10T10:23:21.192Z,16.03
2017-08-10T10:25:50.304Z,17.97
2017-08-10T10:28:19.672Z,15.70
2017-08-10T10:30:48.789Z,17.10
2017-08-10T10:33:17.903Z,16.00
2017-08-10T10:35:47.021Z,15.87
2017-08-10T10:38:16.143Z,18.00
2017-08-10T10:40:45.294Z,19.50
2017-08-10T10:43:14.400Z,18.93
2017-08-10T10:45:43.685Z,20.83
2017-08-10T10:48:12.816Z,19.50
2017-08-10T10:50:42.088Z,18.33
2017-08-10T10:53:11.205Z,20.10
2017-08-10T10:55:40.328Z,24.53
2017-08-10T10:58:09.441Z,25.27
2017-08-10T11:00:38.677Z,25.90
2017-08-10T11:03:07.840Z,29.80
2017-08-10T11:05:36.956Z,26.50
2017-08-10T11:08:06.101Z,22.97
2017-08-10T11:10:35.266Z,27.20
2017-08-10T11:13:04.515Z,23.97
2017-08-10T11:15:33.977Z,26.70
2017-08-10T11:18:03.152Z,32.43
2017-08-10T11:20:32.274Z,30.90
2017-08-10T11:23:01.660Z,31.03
2017-08-10T11:25:30.823Z,31.87
2017-08-10T11:27:59.941Z,31.57
2017-08-10T11:30:29.155Z,31.90
2017-08-10T11:32:58.297Z,31.93
2017-08-10T11:35:27.425Z,32.23
2017-08-10T11:37:56.546Z,31.10
2017-08-10T11:40:25.883Z,33.43
2017-08-10T11:42:55.012Z,31.90
2017-08-10T11:45:24.143Z,28.37
2017-08-10T11:47:53.283Z,30.10
2017-08-10T11:50:22.397Z,27.77
2017-08-10T11:52:51.529Z,27.00
2017-08-10T11:55:20.659Z,30.47
2017-08-10T11:57:49.810Z,31.30
2017-08-10T12:00:18.929Z,27.63
2017-08-10T12:02:48.049Z,28.00
2017-08-10T12:05:17.305Z,26.77
2017-08-10T12:07:46.451Z,27.83
2017-08-10T12:10:15.605Z,28.77
2017-08-10T12:12:44.750Z,24.70
2017-08-10T12:15:15.438Z,25.00
2017-08-10T12:17:44.583Z,25.27
2017-08-10T12:20:14.457Z,24.60
2017-08-10T12:22:43.600Z,23.23
2017-08-10T12:25:12.733Z,20.53
2017-08-10T12:27:41.872Z,25.63
2017-08-10T12:30:11.030Z,22.13
2017-08-10T12:32:40.162Z,27.23
2017-08-10T12:35:09.299Z,24.73
2017-08-10T12:37:38.417Z,23.13
2017-08-10T12:40:07.567Z,27.20
2017-08-10T12:42:36.680Z,23.47
2017-08-10T12:45:05.994Z,21.73
2017-08-10T12:47:40.661Z,24.40
2017-08-10T12:50:09.792Z,21.50
2017-08-10T12:52:38.903Z,24.10
2017-08-10T12:55:08.008Z,23.30
2017-08-10T12:57:37.133Z,22.93
2017-08-10T13:00:06.257Z,24.30
2017-08-10T13:02:35.401Z,25.97
2017-08-10T13:05:04.526Z,26.63
2017-08-10T13:07:33.781Z,29.50
2017-08-10T13:10:02.903Z,31.80
2017-08-10T13:12:32.065Z,30.73
2017-08-10T13:15:01.215Z,30.70
2017-08-10T13:17:30.321Z,28.13
2017-08-10T13:19:59.465Z,32.40
2017-08-10T13:22:28.590Z,29.47
2017-08-10T13:24:57.773Z,26.80
2017-08-10T13:33:24.477Z,27.83
2017-08-10T13:35:53.657Z,27.87
2017-08-10T13:38:22.792Z,27.40
2017-08-10T13:40:51.973Z,26.50
2017-08-10T13:43:21.127Z,24.50
2017-08-10T13:45:50.245Z,30.53
2017-08-10T13:48:20.057Z,25.80
2017-08-10T13:50:49.177Z,32.30
2017-08-10T13:53:18.342Z,29.33
2017-08-10T13:55:47.490Z,28.63
2017-08-10T13:58:16.613Z,26.87
2017-08-10T14:00:45.845Z,31.80
2017-08-10T14:03:14.957Z,27.70
2017-08-10T14:05:44.126Z,33.07
2017-08-10T14:08:13.235Z,26.83
2017-08-10T14:10:42.360Z,27.27
2017-08-10T14:13:11.498Z,30.70
2017-08-10T14:15:40.611Z,27.87
2017-08-10T14:18:09.745Z,26.50
2017-08-10T14:20:38.869Z,26.70
2017-08-10T14:23:08.001Z,26.57
2017-08-10T14:25:37.205Z,27.43
2017-08-10T14:28:06.343Z,26.87
2017-08-10T14:30:35.621Z,27.60
2017-08-10T14:33:04.771Z,25.60
2017-08-10T14:35:33.894Z,27.80
2017-08-10T14:38:03.028Z,29.40
2017-08-10T14:40:32.162Z,29.07
2017-08-10T14:43:01.283Z,29.27
2017-08-10T14:45:30.399Z,30.40
2017-08-10T14:47:59.542Z,26.27
2017-08-10T14:50:28.696Z,29.20
2017-08-10T14:52:57.825Z,29.37
2017-08-10T14:55:26.965Z,30.37
2017-08-10T14:57:56.825Z,30.80
2017-08-10T15:00:26.389Z,29.10
2017-08-10T15:02:55.545Z,28.17
2017-08-10T15:05:25.089Z,30.57
2017-08-10T15:07:54.221Z,26.50
2017-08-10T15:10:23.362Z,24.77
2017-08-10T15:12:52.489Z,25.17
2017-08-10T15:15:21.640Z,32.07
2017-08-10T15:17:50.773Z,28.97
2017-08-10T15:20:20.552Z,28.33
2017-08-10T15:22:49.663Z,27.50
2017-08-10T15:25:18.793Z,30.07
2017-08-10T15:27:47.928Z,28.43
2017-08-10T15:30:17.064Z,29.10
2017-08-10T15:32:46.201Z,32.73
2017-08-10T15:35:15.346Z,31.30
2017-08-10T15:37:44.474Z,30.67
2017-08-10T15:40:13.593Z,32.83
2017-08-10T15:42:42.716Z,36.07
2017-08-10T15:45:11.842Z,32.20
2017-08-10T15:47:40.996Z,33.60
2017-08-10T15:50:10.118Z,34.10
2017-08-10T15:52:39.244Z,30.23
2017-08-10T15:55:08.377Z,34.17
2017-08-10T15:57:37.496Z,33.00
2017-08-10T16:00:06.621Z,32.50
2017-08-10T16:02:35.741Z,34.00
2017-08-10T16:05:04.868Z,30.73
2017-08-10T16:07:34.003Z,36.90
2017-08-10T16:10:03.134Z,34.53
2017-08-10T16:12:32.247Z,34.83
2017-08-10T16:15:01.353Z,36.53
2017-08-10T16:17:30.479Z,35.80
2017-08-10T16:19:59.597Z,37.70
2017-08-10T16:22:28.720Z,34.40
2017-08-10T16:24:57.906Z,33.10
2017-08-10T16:27:27.025Z,35.90
2017-08-10T16:29:56.138Z,36.30
2017-08-10T16:32:25.395Z,35.40
2017-08-10T16:34:54.653Z,34.90
2017-08-10T16:37:23.780Z,33.40
2017-08-10T16:39:52.909Z,35.73
2017-08-10T16:42:22.031Z,35.33
2017-08-10T16:44:51.150Z,33.80
2017-08-10T16:47:20.289Z,36.90
2017-08-10T16:49:49.422Z,36.53
2017-08-10T16:52:18.554Z,32.70
2017-08-10T16:54:47.694Z,35.50
2017-08-10T16:57:16.814Z,35.47
2017-08-10T16:59:46.151Z,33.00
2017-08-10T17:02:15.273Z,35.30
2017-08-10T17:04:44.369Z,36.83
2017-08-10T17:07:13.505Z,37.00
2017-08-10T17:09:42.656Z,35.60
2017-08-10T17:12:11.808Z,36.77
2017-08-10T17:14:40.920Z,34.33
2017-08-10T17:17:10.115Z,38.63
2017-08-10T17:19:39.252Z,35.00
2017-08-10T17:22:08.368Z,41.03
2017-08-10T17:24:37.506Z,35.87
2017-08-10T17:27:06.637Z,37.77
2017-08-10T17:29:35.888Z,38.03
2017-08-10T17:32:05.010Z,36.53
2017-08-10T17:34:34.192Z,37.33
2017-08-10T17:37:03.332Z,35.03
2017-08-10T17:39:32.451Z,36.87
2017-08-10T17:42:01.562Z,35.67
2017-08-10T17:44:30.679Z,34.87
2017-08-10T17:46:59.793Z,35.10
2017-08-10T17:49:28.916Z,33.00
2017-08-10T17:51:58.055Z,33.67
2017-08-10T17:54:27.165Z,31.43
2017-08-10T17:56:56.340Z,30.43
2017-08-10T17:59:25.651Z,27.20
2017-08-10T18:01:54.789Z,28.80
2017-08-10T18:04:23.957Z,29.00
2017-08-10T18:06:53.085Z,33.20
2017-08-10T18:09:22.211Z,35.67
2017-08-10T18:11:51.333Z,38.40
2017-08-10T18:14:20.455Z,34.80
2017-08-10T18:16:49.579Z,35.00
2017-08-10T18:19:18.862Z,38.40
2017-08-10T18:21:47.973Z,38.27
2017-08-10T18:24:17.108Z,36.17
2017-08-10T18:26:46.217Z,37.93
2017-08-10T18:29:15.360Z,35.50
2017-08-10T18:31:44.476Z,38.17
2017-08-10T18:34:13.591Z,38.93
2017-08-10T18:36:42.716Z,41.33
2017-08-10T18:39:11.828Z,37.87
2017-08-10T18:41:40.956Z,38.27
2017-08-10T18:44:10.173Z,42.03
2017-08-10T18:46:39.320Z,38.63
2017-08-10T18:49:08.427Z,36.73
2017-08-10T18:51:37.562Z,43.67
2017-08-10T18:54:06.672Z,38.60
2017-08-10T18:56:35.789Z,38.77
2017-08-10T18:59:04.925Z,36.67
2017-08-10T19:01:34.054Z,40.60
2017-08-10T19:04:03.215Z,38.67
2017-08-10T19:06:32.340Z,39.33
2017-08-10T19:09:01.462Z,37.30
2017-08-10T19:11:30.686Z,40.10
2017-08-10T19:13:59.898Z,41.43
2017-08-10T19:16:29.054Z,37.80
2017-08-10T19:18:58.189Z,35.97
2017-08-10T19:21:27.308Z,37.10
2017-08-10T19:23:56.432Z,38.03
2017-08-10T19:26:25.559Z,37.77
2017-08-10T19:28:54.668Z,34.77
2017-08-10T19:31:23.808Z,34.67
2017-08-10T19:33:52.928Z,36.10
2017-08-10T19:36:22.304Z,35.20
2017-08-10T19:38:51.520Z,38.80
2017-08-10T19:41:20.643Z,38.53
2017-08-10T19:43:49.942Z,36.47
2017-08-10T19:46:19.067Z,32.33
2017-08-10T19:48:48.290Z,38.83
2017-08-10T19:51:17.441Z,39.17
2017-08-10T19:53:46.557Z,39.30
2017-08-10T19:56:15.674Z,39.37
2017-08-10T19:58:44.870Z,37.40
2017-08-10T20:01:14.004Z,40.17
2017-08-10T20:03:43.147Z,41.17
2017-08-10T20:06:12.405Z,42.20
2017-08-10T20:08:41.588Z,39.87
2017-08-10T20:11:10.754Z,40.90
2017-08-10T20:13:39.905Z,41.03
2017-08-10T20:16:09.027Z,41.80
2017-08-10T20:18:38.154Z,44.07
2017-08-10T20:21:07.421Z,41.00
2017-08-10T20:23:36.552Z,40.43
2017-08-10T20:26:05.880Z,43.60
2017-08-10T20:28:35.021Z,44.30
2017-08-10T20:31:04.137Z,42.30
2017-08-10T20:33:33.294Z,41.70
2017-08-10T20:36:02.491Z,43.73
2017-08-10T20:41:41.530Z,16.87
2017-08-10T20:47:36.876Z,32.57
2017-08-10T20:50:04.381Z,28.53
2017-08-10T20:52:31.831Z,29.27
2017-08-10T20:54:59.322Z,34.37
2017-08-10T20:57:26.850Z,32.90
2017-08-10T20:59:54.449Z,38.27
2017-08-10T21:02:21.945Z,40.77
2017-08-10T21:04:50.217Z,43.27
2017-08-10T21:07:18.462Z,40.63
2017-08-10T21:09:45.972Z,35.17
2017-08-10T21:12:13.494Z,37.40
2017-08-10T21:14:40.979Z,39.70
2017-08-10T21:17:08.476Z,38.67
2017-08-10T21:19:35.971Z,38.20
2017-08-10T21:22:03.478Z,41.60
2017-08-10T21:24:30.955Z,43.23
2017-08-10T21:26:58.433Z,46.63
2017-08-10T21:29:25.990Z,49.50
2017-08-10T21:31:53.487Z,47.13
2017-08-10T21:34:20.993Z,53.30
2017-08-10T21:36:48.498Z,49.67
2017-08-10T21:39:15.996Z,55.83
2017-08-10T21:41:43.473Z,50.50
2017-08-10T21:44:11.657Z,50.87
2017-08-10T21:46:39.213Z,58.13
2017-08-10T21:49:07.432Z,54.20
2017-08-10T21:51:34.920Z,54.10
2017-08-10T21:54:02.394Z,59.40
2017-08-10T21:56:29.932Z,59.73
2017-08-10T21:58:57.928Z,59.40
2017-08-10T22:01:25.404Z,59.57
2017-08-10T22:03:53.638Z,53.23
2017-08-10T22:06:21.121Z,56.53
2017-08-10T22:08:48.671Z,52.63
2017-08-10T22:11:16.145Z,47.43
2017-08-10T22:13:44.386Z,54.83
2017-08-10T22:16:11.871Z,49.60
2017-08-10T22:18:39.340Z,49.40
2017-08-10T22:21:07.569Z,48.70
2017-08-10T22:23:35.089Z,45.47
2017-08-10T22:26:02.571Z,42.67
2017-08-10T22:28:30.042Z,47.03
2017-08-10T22:30:57.510Z,49.60
2017-08-10T22:33:25.108Z,47.50
2017-08-10T22:35:53.400Z,55.83
2017-08-10T22:38:21.034Z,50.57
2017-08-10T22:40:49.278Z,54.63
2017-08-10T22:43:16.757Z,53.47
2017-08-10T22:45:44.229Z,54.30
2017-08-10T22:48:12.482Z,50.47
2017-08-10T22:50:39.951Z,53.77
2017-08-10T22:53:07.614Z,54.27
2017-08-10T22:55:35.852Z,44.97
2017-08-10T22:58:03.330Z,50.97
2017-08-10T23:00:30.793Z,44.13
2017-08-10T23:02:58.284Z,42.80
2017-08-10T23:05:25.767Z,44.07
2017-08-10T23:07:53.294Z,45.17
2017-08-10T23:10:20.785Z,41.00
2017-08-10T23:12:48.255Z,38.73
2017-08-10T23:15:15.903Z,36.60
2017-08-10T23:17:43.374Z,37.90
2017-08-10T23:20:10.972Z,36.67
2017-08-10T23:22:39.225Z,35.33
2017-08-10T23:25:06.706Z,39.70
2017-08-10T23:27:34.929Z,39.63
2017-08-10T23:30:02.438Z,36.67
2017-08-10T23:32:30.689Z,36.57
2017-08-10T23:34:58.173Z,36.50
2017-08-10T23:37:26.409Z,36.73
2017-08-10T23:39:53.880Z,34.83
2017-08-10T23:42:21.357Z,35.60
2017-08-10T23:44:49.595Z,34.70
2017-08-10T23:47:17.083Z,35.13
2017-08-10T23:49:45.326Z,32.50
2017-08-10T23:52:12.793Z,34.10
2017-08-10T23:54:40.266Z,32.60
2017-08-10T23:57:08.514Z,35.63
2017-08-10T23:59:35.993Z,33.20
